Time;durP1;ratioP1;P1;durP2;ratioP2;P2;SDS_P1;SDS_P2;PMS_P1;PMS_P2;Temp;Humidity;BMP_temperature;BMP_pressure;BME280_temperature;BME280_humidity;BME280_pressure;Samples;Min_cycle;Max_cycle;Signal;HPM_P1;HPM_P2
2023/05/20 00:02:03;;;;;;;4.43;3.42;;;;;;;14.69;100.00;100457.28;6323688;28;20101;-70
2023/05/20 00:05:05;;;;;;;5.05;3.42;;;;;;;14.74;100.00;100462.22;6323422;28;20056;-70
2023/05/20 00:08:08;;;;;;;4.53;3.20;;;;;;;14.69;100.00;100466.97;6305496;28;20500;-70
2023/05/20 00:11:09;;;;;;;5.22;2.92;;;;;;;14.66;100.00;100461.94;6305285;28;20055;-70
2023/05/20 00:14:09;;;;;;;4.07;3.13;;;;;;;14.57;100.00;100452.91;6304903;28;20044;-70
2023/05/20 00:17:10;;;;;;;5.55;3.33;;;;;;;14.61;100.00;100458.81;6305363;28;20496;-70
2023/05/20 00:20:11;;;;;;;6.53;3.92;;;;;;;14.58;100.00;100456.38;6322943;28;20048;-70
2023/05/20 00:23:12;;;;;;;5.53;3.40;;;;;;;14.58;100.00;100459.00;6313035;28;20096;-69
2023/05/20 00:26:13;;;;;;;5.25;3.78;;;;;;;14.56;100.00;100458.28;6349426;28;20459;-70
2023/05/20 00:29:16;;;;;;;6.72;3.13;;;;;;;14.51;100.00;100462.03;6331333;28;20052;-70
2023/05/20 00:32:17;;;;;;;5.72;3.70;;;;;;;14.34;100.00;100454.53;6349227;28;20483;-70
2023/05/20 00:35:18;;;;;;;6.63;3.45;;;;;;;14.32;100.00;100453.78;6331290;28;20047;-69
2023/05/20 00:38:18;;;;;;;4.50;3.15;;;;;;;14.25;100.00;100448.16;6349218;28;20120;-70
2023/05/20 00:41:20;;;;;;;4.68;3.25;;;;;;;14.17;100.00;100455.72;6330671;28;20130;-70
2023/05/20 00:44:23;;;;;;;4.35;3.20;;;;;;;14.10;100.00;100452.69;6330617;28;20120;-70
2023/05/20 00:47:33;;;;;;;6.95;3.70;;;;;;;13.99;100.00;100451.75;6330583;28;20109;-70
2023/05/20 00:50:34;;;;;;;5.63;3.33;;;;;;;14.04;100.00;100449.63;6348783;28;20474;-70
2023/05/20 00:53:38;;;;;;;5.10;3.67;;;;;;;13.86;100.00;100447.34;6330497;28;20051;-69
2023/05/20 00:56:39;;;;;;;6.82;3.50;;;;;;;13.73;100.00;100438.63;6330072;28;20415;-69
2023/05/20 00:59:40;;;;;;;4.43;3.28;;;;;;;13.81;100.00;100440.72;6347679;28;20055;-70
2023/05/20 01:02:41;;;;;;;8.77;4.20;;;;;;;13.83;100.00;100434.41;6348347;28;20051;-70
2023/05/20 01:05:47;;;;;;;5.18;3.30;;;;;;;13.83;100.00;100429.16;6330126;28;20458;-69
2023/05/20 01:08:48;;;;;;;8.90;3.30;;;;;;;13.81;100.00;100427.59;6329833;28;20127;-70
2023/05/20 01:12:04;;;;;;;4.85;3.45;;;;;;;13.78;100.00;100438.31;6348277;28;20055;-70
2023/05/20 01:15:09;;;;;;;5.93;4.03;;;;;;;13.74;100.00;100437.69;6330185;28;20047;-69
2023/05/20 01:18:15;;;;;;;5.63;3.97;;;;;;;13.67;100.00;100437.28;6329847;28;20135;-70
2023/05/20 01:21:16;;;;;;;7.95;3.83;;;;;;;13.64;100.00;100429.59;6348334;28;20466;-69
2023/05/20 01:24:17;;;;;;;5.72;3.60;;;;;;;13.65;100.00;100426.03;6348066;28;20109;-70
2023/05/20 01:27:21;;;;;;;7.05;4.22;;;;;;;13.63;100.00;100427.06;6330138;28;20380;-69
2023/05/20 01:30:28;;;;;;;8.50;3.53;;;;;;;13.52;100.00;100422.56;6329629;28;20051;-69
2023/05/20 01:33:30;;;;;;;5.75;3.95;;;;;;;13.49;100.00;100420.16;6329578;28;20051;-70
2023/05/20 01:36:32;;;;;;;6.97;4.50;;;;;;;13.54;100.00;100422.47;6329359;28;20051;-69
2023/05/20 01:39:40;;;;;;;5.10;3.67;;;;;;;13.47;100.00;100420.25;6329210;28;20091;-70
2023/05/20 01:42:42;;;;;;;6.30;3.97;;;;;;;13.53;100.00;100419.00;6329567;28;20088;-70
2023/05/20 01:45:43;;;;;;;;;;;;;;;13.41;100.00;100411.97;6329674;28;20380;-70
2023/05/20 01:48:44;;;;;;;4.75;3.15;;;;;;;13.44;100.00;100411.75;6347173;28;19919;-70
2023/05/20 01:51:45;;;;;;;6.47;4.18;;;;;;;13.47;100.00;100412.38;6346397;28;20044;-70
2023/05/20 01:54:49;;;;;;;5.68;3.83;;;;;;;13.40;100.00;100408.50;6347093;28;20120;-69
2023/05/20 01:57:50;;;;;;;7.95;3.83;;;;;;;13.42;100.00;100414.47;6347022;28;20138;-70
2023/05/20 02:00:51;;;;;;;5.53;3.80;;;;;;;13.36;100.00;100419.28;6329213;28;20047;-69
2023/05/20 02:03:52;;;;;;;6.15;3.70;;;;;;;13.28;100.00;100411.91;6329180;28;20127;-69
2023/05/20 02:06:53;;;;;;;4.65;3.53;;;;;;;13.30;100.00;100417.91;6347039;28;20091;-69
2023/05/20 02:09:56;;;;;;;6.78;4.07;;;;;;;13.24;100.00;100406.03;6346543;28;20445;-69
2023/05/20 02:12:56;;;;;;;6.88;3.72;;;;;;;13.24;100.00;100413.91;6328858;28;20054;-69
2023/05/20 02:15:57;;;;;;;6.63;3.97;;;;;;;13.19;100.00;100421.22;6328601;28;20052;-69
2023/05/20 02:18:58;;;;;;;5.97;3.67;;;;;;;13.27;100.00;100415.47;6328535;28;20043;-70
2023/05/20 02:21:59;;;;;;;6.00;3.78;;;;;;;13.28;100.00;100417.13;6328803;28;20701;-69
2023/05/20 02:24:59;;;;;;;11.80;3.60;;;;;;;13.29;100.00;100418.88;6328467;28;20047;-70
2023/05/20 02:28:04;;;;;;;7.80;4.85;;;;;;;13.22;100.00;100415.78;6328478;28;20048;-69
2023/05/20 02:31:05;;;;;;;7.03;4.05;;;;;;;13.17;100.00;100422.25;6328643;28;20139;-70
2023/05/20 02:34:06;;;;;;;5.07;3.63;;;;;;;13.15;100.00;100411.03;6346700;28;20051;-69
2023/05/20 02:37:06;;;;;;;6.63;4.10;;;;;;;13.14;100.00;100407.59;6346459;28;20138;-69
2023/05/20 02:40:08;;;;;;;9.65;3.58;;;;;;;13.12;100.00;100404.22;6328306;28;20407;-71
2023/05/20 02:43:08;;;;;;;7.43;4.07;;;;;;;13.18;100.00;100413.44;6346848;28;20048;-70
2023/05/20 02:46:09;;;;;;;11.32;4.25;;;;;;;13.10;100.00;100406.13;6346392;28;20099;-70
2023/05/20 02:49:10;;;;;;;8.25;4.32;;;;;;;13.06;100.00;100408.09;6346500;28;20387;-70
2023/05/20 02:52:11;;;;;;;5.13;3.58;;;;;;;13.07;100.00;100412.41;6328302;28;20055;-70
2023/05/20 02:55:12;;;;;;;8.20;4.18;;;;;;;13.03;100.00;100415.31;6345644;28;20048;-70
2023/05/20 02:58:13;;;;;;;7.47;4.20;;;;;;;13.05;100.00;100413.41;6327021;28;20050;-71
2023/05/20 03:01:14;;;;;;;7.35;4.07;;;;;;;13.10;100.00;100421.84;6346438;28;20047;-69
2023/05/20 03:04:17;;;;;;;5.35;4.18;;;;;;;13.16;100.00;100421.44;6346342;28;20062;-69
2023/05/20 03:07:20;;;;;;;7.80;4.03;;;;;;;13.07;100.00;100422.88;6346097;28;20044;-71
2023/05/20 03:10:21;;;;;;;5.55;4.03;;;;;;;13.10;100.00;100433.16;6328185;28;20054;-70
2023/05/20 03:13:21;;;;;;;7.78;4.65;;;;;;;13.09;100.00;100438.47;6345992;28;20044;-70
2023/05/20 03:16:26;;;;;;;5.72;4.13;;;;;;;12.89;100.00;100438.00;6328038;28;20050;-70
2023/05/20 03:19:27;;;;;;;7.53;4.28;;;;;;;12.99;100.00;100434.78;6345967;28;20097;-70
2023/05/20 03:22:28;;;;;;;7.35;3.78;;;;;;;13.07;100.00;100433.38;6349804;28;20494;-70
2023/05/20 03:25:29;;;;;;;6.68;4.43;;;;;;;13.06;100.00;100422.97;6332627;28;20051;-70
2023/05/20 03:28:30;;;;;;;7.30;4.25;;;;;;;13.07;100.00;100432.50;6351122;28;20052;-70
2023/05/20 03:31:31;;;;;;;5.07;3.60;;;;;;;13.05;100.00;100439.63;6350652;28;20047;-69
2023/05/20 03:34:32;;;;;;;6.55;3.92;;;;;;;13.00;100.00;100434.69;6350852;28;20080;-71
2023/05/20 03:37:32;;;;;;;6.22;4.38;;;;;;;13.07;100.00;100433.38;6332534;28;20047;-68
2023/05/20 03:40:33;;;;;;;7.65;4.28;;;;;;;13.03;100.00;100431.88;6332135;28;20054;-70
2023/05/20 03:43:34;;;;;;;5.72;4.00;;;;;;;13.05;100.00;100437.00;6332101;28;20051;-69
2023/05/20 03:46:35;;;;;;;7.05;4.10;;;;;;;13.13;100.00;100439.13;6350265;28;20158;-69
2023/05/20 03:49:35;;;;;;;5.40;4.07;;;;;;;13.06;100.00;100455.25;6331969;28;20417;-70
2023/05/20 03:52:37;;;;;;;6.80;4.07;;;;;;;13.10;100.00;100450.66;6349165;28;20135;-69
2023/05/20 03:55:41;;;;;;;7.87;4.00;;;;;;;13.16;100.00;100455.50;6350066;28;20452;-69
2023/05/20 03:58:42;;;;;;;5.18;3.55;;;;;;;13.22;100.00;100456.84;6331639;28;20552;-70
2023/05/20 04:01:42;;;;;;;7.65;4.68;;;;;;;13.24;100.00;100445.34;6350268;28;20052;-70
2023/05/20 04:04:43;;;;;;;5.00;3.92;;;;;;;13.30;100.00;100444.97;6349915;28;20051;-70
2023/05/20 04:07:44;;;;;;;4.88;3.90;;;;;;;13.29;100.00;100451.13;6331508;28;20051;-70
2023/05/20 04:10:45;;;;;;;6.75;4.53;;;;;;;13.43;100.00;100447.63;6331582;28;20130;-69
2023/05/20 04:13:45;;;;;;;7.57;4.57;;;;;;;13.44;100.00;100451.06;6349685;28;20142;-70
2023/05/20 04:16:47;;;;;;;11.27;4.57;;;;;;;13.57;100.00;100448.47;6349739;28;20493;-69
2023/05/20 04:19:50;;;;;;;5.97;3.65;;;;;;;13.69;100.00;100456.34;6349651;28;20492;-69
2023/05/20 04:22:51;;;;;;;6.55;4.30;;;;;;;13.65;100.00;100460.13;6331635;28;20070;-69
2023/05/20 04:25:51;;;;;;;10.80;4.70;;;;;;;13.61;100.00;100448.16;6331140;28;20487;-69
2023/05/20 04:28:52;;;;;;;5.78;3.63;;;;;;;13.60;100.00;100450.88;6349229;28;20043;-70
2023/05/20 04:31:53;;;;;;;9.27;4.03;;;;;;;13.64;100.00;100453.19;6330898;28;20063;-69
2023/05/20 04:34:54;;;;;;;6.32;3.85;;;;;;;13.79;100.00;100447.84;6349489;28;20124;-69
2023/05/20 04:37:55;;;;;;;6.72;4.32;;;;;;;13.63;100.00;100448.03;6349090;28;20051;-69
2023/05/20 04:40:59;;;;;;;9.63;3.70;;;;;;;13.67;100.00;100458.25;6330841;28;20310;-71
2023/05/20 04:44:00;;;;;;;5.68;3.67;;;;;;;13.72;100.00;100451.84;6349173;28;20056;-72
2023/05/20 04:47:01;;;;;;;6.10;4.30;;;;;;;13.82;100.00;100456.34;6330603;28;20085;-72
2023/05/20 04:50:02;;;;;;;11.40;4.85;;;;;;;13.78;100.00;100460.13;6349070;28;20044;-72
2023/05/20 04:53:03;;;;;;;7.93;3.88;;;;;;;13.88;100.00;100455.09;6328921;28;20418;-72
2023/05/20 04:56:04;;;;;;;6.88;4.07;;;;;;;13.97;100.00;100470.19;6338376;28;20078;-72
2023/05/20 04:59:08;;;;;;;9.98;5.03;;;;;;;14.04;100.00;100468.00;6329860;28;20124;-72
2023/05/20 05:02:09;;;;;;;6.20;4.35;;;;;;;14.03;100.00;100474.19;6345287;28;20104;-72
2023/05/20 05:05:12;;;;;;;6.53;4.43;;;;;;;14.09;100.00;100474.59;6331747;28;20051;-72
2023/05/20 05:08:13;;;;;;;7.50;4.18;;;;;;;14.13;100.00;100477.88;6329807;28;20039;-71
2023/05/20 05:11:13;;;;;;;6.82;3.78;;;;;;;14.18;100.00;100475.75;6318197;28;20054;-70
2023/05/20 05:14:14;;;;;;;6.82;4.40;;;;;;;14.09;100.00;100471.16;6343800;28;20043;-69
2023/05/20 05:17:15;;;;;;;5.53;3.70;;;;;;;14.10;100.00;100473.69;6326722;28;20468;-72
2023/05/20 05:20:16;;;;;;;5.88;4.15;;;;;;;14.18;100.00;100472.28;6324119;28;20089;-71
2023/05/20 05:23:17;;;;;;;7.18;4.35;;;;;;;14.19;100.00;100471.38;6306999;28;20565;-71
2023/05/20 05:26:18;;;;;;;10.27;5.18;;;;;;;14.31;100.00;100483.63;6332479;28;20051;-72
2023/05/20 05:29:18;;;;;;;9.73;4.45;;;;;;;14.34;100.00;100478.16;6307853;28;20059;-71
2023/05/20 05:32:19;;;;;;;7.40;4.18;;;;;;;14.40;100.00;100471.63;6321882;28;20579;-71
2023/05/20 05:35:20;;;;;;;5.47;4.25;;;;;;;14.51;100.00;100480.41;6308918;28;20055;-71
2023/05/20 05:38:21;;;;;;;6.85;4.30;;;;;;;14.92;100.00;100478.44;6304374;28;20072;-72
2023/05/20 05:41:21;;;;;;;9.85;4.30;;;;;;;15.19;100.00;100472.97;6304204;28;20048;-72
2023/05/20 05:44:22;;;;;;;6.90;3.70;;;;;;;15.52;100.00;100482.78;6304065;28;20052;-72
2023/05/20 05:47:28;;;;;;;5.60;4.07;;;;;;;15.82;100.00;100476.16;6344715;28;20050;-71
2023/05/20 05:50:29;;;;;;;6.97;4.15;;;;;;;16.09;100.00;100480.28;6333506;28;20067;-71
2023/05/20 05:53:30;;;;;;;6.03;3.72;;;;;;;16.32;100.00;100471.41;6337907;28;20044;-72
2023/05/20 05:56:33;;;;;;;10.27;4.53;;;;;;;16.63;99.11;100479.53;6342936;28;20048;-73
2023/05/20 05:59:34;;;;;;;9.40;4.25;;;;;;;16.97;98.05;100473.38;6295441;28;20099;-71
2023/05/20 06:02:34;;;;;;;6.32;4.25;;;;;;;17.23;94.45;100479.97;6305605;28;20052;-69
2023/05/20 06:05:40;;;;;;;6.32;3.67;;;;;;;17.47;89.81;100484.19;6295678;28;20056;-71
2023/05/20 06:08:41;;;;;;;7.45;4.70;;;;;;;17.73;88.32;100488.13;6300122;28;20045;-72
2023/05/20 06:11:43;;;;;;;5.90;3.85;;;;;;;18.02;87.13;100492.78;6296651;28;20469;-72
2023/05/20 06:14:44;;;;;;;8.73;4.43;;;;;;;18.20;83.74;100492.16;6295997;28;20052;-72
2023/05/20 06:17:44;;;;;;;6.35;3.92;;;;;;;18.63;84.03;100480.50;6295767;28;20051;-70
2023/05/20 06:20:54;;;;;;;5.55;3.80;;;;;;;18.70;81.19;100477.19;6297137;28;20118;-72
2023/05/20 06:23:55;;;;;;;9.48;4.85;;;;;;;18.93;80.49;100474.34;6305902;28;20056;-71
2023/05/20 06:27:01;;;;;;;6.38;4.15;;;;;;;19.20;79.49;100473.66;6297928;28;20131;-72
2023/05/20 06:30:03;;;;;;;7.07;4.00;;;;;;;19.43;78.85;100473.34;6296494;28;20471;-71
2023/05/20 06:33:03;;;;;;;5.30;3.83;;;;;;;19.52;75.57;100475.19;6295196;28;20060;-70
2023/05/20 06:36:04;;;;;;;7.32;4.57;;;;;;;19.71;74.00;100477.81;6296451;28;20108;-70
2023/05/20 06:39:11;;;;;;;6.13;3.73;;;;;;;19.84;72.24;100472.19;6300073;28;20789;-72
2023/05/20 06:42:11;;;;;;;7.50;4.47;;;;;;;20.19;73.39;100469.88;6298059;28;20044;-72
2023/05/20 06:45:12;;;;;;;7.33;4.53;;;;;;;20.42;72.12;100468.50;6294645;28;20484;-70
2023/05/20 06:48:13;;;;;;;6.40;4.00;;;;;;;20.53;71.48;100465.66;6319495;28;20040;-71
2023/05/20 06:51:14;;;;;;;9.73;4.33;;;;;;;20.67;69.65;100464.34;6315520;28;20052;-71
2023/05/20 06:54:15;;;;;;;6.53;4.30;;;;;;;20.96;69.19;100465.97;6310183;28;20499;-72
2023/05/20 06:57:15;;;;;;;5.73;4.13;;;;;;;21.24;67.66;100471.19;6315695;28;20048;-71
2023/05/20 07:00:16;;;;;;;8.27;4.40;;;;;;;21.56;66.77;100472.47;6332634;28;20135;-71
2023/05/20 07:03:17;;;;;;;6.97;4.03;;;;;;;21.72;67.62;100480.53;6316633;28;20051;-71
2023/05/20 07:06:18;;;;;;;5.37;3.87;;;;;;;21.78;62.61;100479.91;6333354;28;20051;-70
2023/05/20 07:09:19;;;;;;;9.53;3.57;;;;;;;22.01;65.10;100482.06;6320909;28;20056;-71
2023/05/20 07:12:19;;;;;;;7.60;4.40;;;;;;;22.25;64.06;100476.91;6326666;28;20064;-71
2023/05/20 07:15:20;;;;;;;10.77;4.60;;;;;;;22.32;64.26;100475.28;6309696;28;20052;-69
2023/05/20 07:18:21;;;;;;;7.93;3.87;;;;;;;22.67;62.30;100464.56;6318317;28;20050;-70
2023/05/20 07:21:22;;;;;;;8.90;4.60;;;;;;;22.85;58.72;100457.31;6331183;28;20056;-70
2023/05/20 07:24:22;;;;;;;6.63;3.77;;;;;;;23.05;60.84;100467.69;6308545;28;20451;-71
2023/05/20 07:27:23;;;;;;;6.87;3.73;;;;;;;23.03;57.22;100467.84;6332493;28;20047;-71
2023/05/20 07:30:24;;;;;;;7.10;4.67;;;;;;;23.30;57.28;100465.88;6313600;28;20100;-70
2023/05/20 07:33:24;;;;;;;10.20;3.93;;;;;;;23.45;54.25;100474.00;6338973;28;20052;-70
2023/05/20 07:36:29;;;;;;;6.43;4.03;;;;;;;23.76;57.01;100473.31;6340957;28;20052;-70
2023/05/20 07:39:30;;;;;;;5.28;3.70;;;;;;;23.95;52.91;100462.31;6317896;28;20052;-71
2023/05/20 07:42:33;;;;;;;18.40;4.65;;;;;;;23.88;53.87;100478.13;6320079;28;20104;-70
2023/05/20 07:45:35;;;;;;;6.00;3.75;;;;;;;24.06;51.32;100466.44;6337927;28;20050;-71
2023/05/20 07:48:36;;;;;;;10.15;3.88;;;;;;;24.11;53.53;100480.06;6331145;28;20130;-70
2023/05/20 07:51:37;;;;;;;5.50;4.20;;;;;;;24.35;52.56;100468.50;6314128;28;20070;-70
2023/05/20 07:54:42;;;;;;;5.67;4.10;;;;;;;24.62;52.81;100469.88;6328173;28;20051;-70
2023/05/20 07:57:46;;;;;;;6.78;4.38;;;;;;;24.72;53.17;100469.69;6325815;28;20063;-71
2023/05/20 08:00:47;;;;;;;7.65;4.00;;;;;;;24.85;52.39;100469.09;6311735;28;20195;-71
2023/05/20 08:03:48;;;;;;;6.05;3.25;;;;;;;24.49;48.64;100459.78;6335688;28;20535;-71
2023/05/20 08:06:49;;;;;;;5.43;3.67;;;;;;;24.82;49.55;100466.78;6335043;28;20155;-71
2023/05/20 08:09:50;;;;;;;6.70;4.22;;;;;;;25.11;51.21;100466.09;6327225;28;20050;-71
2023/05/20 08:12:50;;;;;;;7.93;3.90;;;;;;;25.10;49.05;100462.59;6331693;28;20048;-71
2023/05/20 08:15:54;;;;;;;5.83;3.93;;;;;;;25.22;50.29;100460.34;6326463;28;20143;-70
2023/05/20 08:18:57;;;;;;;6.72;3.53;;;;;;;25.10;44.98;100457.25;6331475;28;20040;-70
2023/05/20 08:21:58;;;;;;;5.40;3.63;;;;;;;25.39;48.92;100455.72;6331437;28;20086;-70
2023/05/20 08:24:59;;;;;;;5.00;3.67;;;;;;;25.52;46.25;100463.09;6331654;28;20044;-70
2023/05/20 08:28:05;;;;;;;7.83;3.83;;;;;;;25.79;47.42;100464.34;6349326;28;20047;-70
2023/05/20 08:31:06;;;;;;;7.75;4.05;;;;;;;25.68;45.48;100457.59;6349342;28;20396;-70
2023/05/20 08:34:07;;;;;;;5.63;3.63;;;;;;;25.97;44.97;100452.50;6349274;28;20071;-71
2023/05/20 08:37:07;;;;;;;5.70;3.73;;;;;;;26.15;44.62;100455.63;6331079;28;20060;-70
2023/05/20 08:40:09;;;;;;;6.00;3.87;;;;;;;26.23;44.68;100465.38;6330774;28;20047;-71
2023/05/20 08:43:09;;;;;;;8.52;3.72;;;;;;;26.41;44.65;100470.34;6348620;28;20047;-71
2023/05/20 08:46:11;;;;;;;6.77;3.83;;;;;;;26.53;44.09;100461.63;6330938;28;20043;-72
2023/05/20 08:49:12;;;;;;;7.57;3.70;;;;;;;26.51;45.07;100463.66;6348519;28;20559;-72
2023/05/20 08:52:15;;;;;;;7.22;4.35;;;;;;;26.61;43.68;100458.06;6330644;28;20164;-71
2023/05/20 08:55:29;;;;;;;5.45;3.85;;;;;;;26.56;43.29;100464.94;6330465;28;20058;-71
2023/05/20 08:58:31;;;;;;;7.28;3.58;;;;;;;26.59;41.67;100454.75;6330321;28;20051;-71
2023/05/20 09:01:37;;;;;;;7.68;3.45;;;;;;;26.98;43.72;100458.84;6330404;28;20056;-71
2023/05/20 09:04:38;;;;;;;5.03;3.53;;;;;;;26.89;43.67;100459.97;6330384;28;20063;-72
2023/05/20 09:07:38;;;;;;;4.90;3.30;;;;;;;26.76;44.89;100458.00;6330324;28;20052;-71
2023/05/20 09:10:40;;;;;;;4.32;3.15;;;;;;;27.13;42.75;100458.78;6329939;28;20395;-71
2023/05/20 09:13:42;;;;;;;5.05;3.30;;;;;;;27.32;42.87;100450.13;6329668;28;20373;-72
2023/05/20 09:16:43;;;;;;;5.25;3.45;;;;;;;27.19;42.76;100443.78;6330104;28;20055;-72
2023/05/20 09:19:43;;;;;;;6.00;3.50;;;;;;;27.33;41.59;100440.22;6329040;28;20533;-71
2023/05/20 09:22:44;;;;;;;6.23;3.20;;;;;;;27.41;42.63;100434.75;6348360;28;20280;-71
2023/05/20 09:25:50;;;;;;;6.57;3.53;;;;;;;27.61;42.43;100439.41;6329995;28;20284;-72
2023/05/20 09:28:51;;;;;;;7.93;3.33;;;;;;;27.96;42.49;100431.38;6329944;28;20048;-72
2023/05/20 09:31:54;;;;;;;7.38;3.20;;;;;;;27.77;39.81;100431.03;6330039;28;20577;-71
2023/05/20 09:34:55;;;;;;;4.30;2.80;;;;;;;27.79;37.58;100423.63;6347782;28;20514;-71
2023/05/20 09:37:57;;;;;;;6.00;2.70;;;;;;;27.81;38.99;100436.84;6347861;28;20048;-71
2023/05/20 09:41:00;;;;;;;4.20;2.90;;;;;;;27.89;37.43;100428.69;6329434;28;20063;-72
2023/05/20 09:44:02;;;;;;;5.72;3.00;;;;;;;28.25;36.79;100430.28;6329606;28;20044;-71
2023/05/20 09:47:06;;;;;;;5.47;3.00;;;;;;;28.28;37.89;100430.72;6329535;28;20055;-72
2023/05/20 09:50:08;;;;;;;4.95;3.30;;;;;;;28.47;36.23;100426.44;6329460;28;20176;-71
2023/05/20 09:53:11;;;;;;;6.15;2.83;;;;;;;28.16;36.29;100426.94;6328968;28;20444;-71
2023/05/20 09:56:14;;;;;;;4.22;2.83;;;;;;;28.23;36.71;100410.88;6328887;28;20051;-72
2023/05/20 09:59:17;;;;;;;4.10;2.92;;;;;;;28.12;38.57;100413.09;6328666;28;20395;-72
2023/05/20 10:02:19;;;;;;;5.47;2.88;;;;;;;28.61;35.78;100405.03;6347372;28;20039;-72
2023/05/20 10:05:35;;;;;;;3.33;2.67;;;;;;;28.55;36.04;100416.59;6328865;28;20383;-72
2023/05/20 10:08:45;;;;;;;5.90;2.90;;;;;;;28.30;37.25;100412.56;6329036;28;20106;-71
2023/05/20 10:11:48;;;;;;;4.55;3.15;;;;;;;28.69;37.47;100404.84;6326676;28;20527;-72
2023/05/20 10:15:17;;;;;;;4.10;2.55;;;;;;;28.99;36.37;100401.75;6328297;28;20694;-71
2023/05/20 10:18:45;;;;;;;7.10;3.05;;;;;;;29.11;35.41;100400.16;6327335;28;20048;-72
2023/05/20 10:21:56;;;;;;;5.30;2.85;;;;;;;28.81;36.82;100397.03;6345532;28;20411;-72
2023/05/20 10:25:10;;;;;;;5.03;2.97;;;;;;;29.02;37.24;100387.94;6327319;28;20557;-72
2023/05/20 10:28:11;;;;;;;6.22;2.80;;;;;;;29.22;36.12;100396.00;6327447;28;20126;-71
2023/05/20 10:31:17;;;;;;;4.65;2.95;;;;;;;29.37;39.01;100395.81;6327765;28;20387;-71
2023/05/20 10:34:20;;;;;;;5.45;2.60;;;;;;;29.26;35.87;100394.56;6327915;28;20410;-72
2023/05/20 10:37:30;;;;;;;6.20;2.95;;;;;;;29.60;33.37;100382.72;6346075;28;20074;-72
2023/05/20 10:40:30;;;;;;;4.68;2.60;;;;;;;29.73;34.24;100381.88;6327681;28;20423;-71
2023/05/20 10:43:31;;;;;;;8.05;2.80;;;;;;;29.61;36.33;100388.91;6344659;28;20166;-72
2023/05/20 10:46:33;;;;;;;4.25;2.70;;;;;;;29.75;35.08;100381.69;6327713;28;20055;-72
2023/05/20 10:49:37;;;;;;;4.50;2.47;;;;;;;29.64;31.36;100372.38;6345891;28;20039;-72
2023/05/20 10:52:38;;;;;;;4.20;2.80;;;;;;;29.79;31.67;100377.53;6328132;28;20051;-71
2023/05/20 10:55:46;;;;;;;5.38;2.55;;;;;;;29.56;35.05;100373.41;6346058;28;20074;-71
2023/05/20 11:10:13;;;;;;;4.45;2.75;;;;;;;29.18;32.20;100341.03;6293280;28;20386;-70
2023/05/20 11:13:14;;;;;;;3.45;2.78;;;;;;;29.61;34.71;100337.84;6292266;28;20052;-71
2023/05/20 11:16:15;;;;;;;5.43;2.50;;;;;;;29.76;33.44;100345.69;6293167;28;20060;-72
2023/05/20 11:19:18;;;;;;;3.28;2.40;;;;;;;29.84;35.65;100334.69;6292156;28;20436;-73
2023/05/20 11:22:21;;;;;;;3.15;2.55;;;;;;;29.97;34.10;100325.75;6293204;28;20059;-73
2023/05/20 11:25:22;;;;;;;3.90;2.50;;;;;;;30.14;31.89;100321.50;6291709;28;20143;-73
2023/05/20 11:28:23;;;;;;;3.40;2.80;;;;;;;30.30;34.12;100306.75;6287946;28;20432;-73
2023/05/20 11:31:26;;;;;;;3.67;2.10;;;;;;;30.48;33.62;100319.47;6281099;28;20109;-74
2023/05/20 11:34:38;;;;;;;2.78;2.42;;;;;;;29.93;31.55;100317.25;6266514;28;20072;-72
2023/05/20 11:37:41;;;;;;;5.38;2.55;;;;;;;30.01;35.60;100308.94;6268292;28;20107;-74
2023/05/20 11:40:49;;;;;;;3.58;2.83;;;;;;;29.84;34.12;100308.63;6271509;28;20056;-73
2023/05/20 11:44:00;;;;;;;3.58;2.40;;;;;;;30.30;33.81;100295.97;6269162;28;20132;-73
2023/05/20 11:47:02;;;;;;;4.38;2.45;;;;;;;30.47;32.94;100286.31;6279806;28;20059;-72
2023/05/20 11:50:03;;;;;;;4.38;2.65;;;;;;;30.18;32.29;100289.59;6275417;28;20060;-72
2023/05/20 11:53:04;;;;;;;;;;;;;;;29.89;31.82;100294.53;6265683;28;20619;-73
2023/05/20 11:56:05;;;;;;;5.95;2.70;;;;;;;30.08;33.53;100282.84;6285642;28;19920;-72
2023/05/20 11:59:08;;;;;;;3.38;2.53;;;;;;;30.34;31.23;100281.03;6291194;28;20045;-72
2023/05/20 12:02:09;;;;;;;4.50;2.80;;;;;;;30.93;31.63;100276.22;6290093;28;20078;-72
2023/05/20 12:05:10;;;;;;;3.63;2.55;;;;;;;30.24;32.67;100272.59;6278870;28;20052;-73
2023/05/20 12:08:11;;;;;;;4.40;2.60;;;;;;;30.07;30.95;100272.28;6271857;28;20049;-73
2023/05/20 12:11:12;;;;;;;4.88;2.90;;;;;;;29.26;33.09;100269.13;6289570;28;20046;-73
2023/05/20 12:14:15;;;;;;;6.22;2.80;;;;;;;28.82;36.60;100277.84;6272795;28;20126;-73
2023/05/20 12:17:16;;;;;;;4.63;3.08;;;;;;;28.31;35.10;100265.81;6258414;28;20053;-72
2023/05/20 12:20:18;;;;;;;4.45;2.85;;;;;;;28.74;35.82;100276.19;6260048;28;20049;-72
2023/05/20 12:23:22;;;;;;;4.47;2.85;;;;;;;28.91;33.35;100264.00;6274548;28;20063;-72
2023/05/20 12:26:24;;;;;;;5.20;2.95;;;;;;;29.11;34.07;100271.19;6261975;28;20099;-73
2023/05/20 12:29:25;;;;;;;4.43;3.08;;;;;;;28.50;35.54;100269.59;6282025;28;20052;-72
2023/05/20 12:32:26;;;;;;;6.10;2.53;;;;;;;27.94;35.05;100262.66;6248947;28;20553;-73
2023/05/20 12:35:40;;;;;;;5.13;2.83;;;;;;;27.43;35.37;100260.41;6248059;28;20050;-72
2023/05/20 12:38:41;;;;;;;3.83;2.60;;;;;;;27.13;36.04;100250.72;6264096;28;20045;-72
2023/05/20 12:41:42;;;;;;;6.70;2.83;;;;;;;27.53;35.34;100256.31;6274204;28;20064;-73
2023/05/20 12:44:43;;;;;;;4.25;2.60;;;;;;;28.41;37.12;100242.09;6272897;28;20151;-72
2023/05/20 12:47:44;;;;;;;4.65;2.90;;;;;;;29.06;35.81;100239.56;6257943;28;20481;-74
2023/05/20 12:50:45;;;;;;;4.60;2.72;;;;;;;29.01;32.20;100238.56;6249742;28;20054;-73
2023/05/20 12:53:45;;;;;;;5.65;3.15;;;;;;;29.03;35.29;100231.91;6247365;28;20095;-73
2023/05/20 12:56:47;;;;;;;3.50;2.40;;;;;;;28.78;32.36;100229.09;6247886;28;20459;-73
2023/05/20 12:59:48;;;;;;;3.50;2.30;;;;;;;28.89;36.41;100231.16;6248037;28;20049;-73
2023/05/20 13:02:49;;;;;;;3.33;2.70;;;;;;;29.07;34.63;100230.47;6247740;28;20056;-73
2023/05/20 13:05:49;;;;;;;3.85;2.25;;;;;;;29.38;33.73;100228.94;6247835;28;20485;-74
2023/05/20 13:08:52;;;;;;;3.15;2.42;;;;;;;28.63;34.38;100226.63;6247415;28;20049;-73
2023/05/20 13:11:53;;;;;;;2.67;2.13;;;;;;;28.32;32.45;100217.31;6247608;28;20073;-72
2023/05/20 13:14:56;;;;;;;8.07;4.57;;;;;;;28.77;33.45;100221.25;6247551;28;20072;-73
2023/05/20 13:17:59;;;;;;;5.40;2.80;;;;;;;28.46;32.78;100220.84;6248729;28;20080;-72
2023/05/20 13:21:03;;;;;;;16.80;10.80;;;;;;;28.38;34.65;100221.03;6247593;28;20401;-72
2023/05/20 13:24:03;;;;;;;7.07;5.07;;;;;;;27.57;36.18;100215.69;6248837;28;20068;-72
2023/05/20 13:27:05;;;;;;;4.90;3.30;;;;;;;27.73;36.74;100216.16;6247345;28;20057;-72
2023/05/20 13:30:06;;;;;;;4.38;2.78;;;;;;;27.93;35.27;100216.25;6248911;28;20056;-73
2023/05/20 13:33:07;;;;;;;5.25;2.88;;;;;;;28.57;35.25;100214.03;6247264;28;20049;-72
2023/05/20 13:36:09;;;;;;;7.10;3.72;;;;;;;29.03;38.00;100206.94;6248075;28;20460;-73
2023/05/20 13:39:10;;;;;;;4.00;2.80;;;;;;;28.92;34.22;100195.00;6247298;28;20132;-73
2023/05/20 13:42:11;;;;;;;;;;;;;;;29.09;34.24;100184.59;6247293;28;20046;-73
2023/05/20 13:45:12;;;;;;;6.50;3.60;;;;;;;29.34;35.70;100190.09;6246768;28;19984;-73
2023/05/20 13:48:13;;;;;;;14.57;8.75;;;;;;;29.15;34.53;100188.34;6247912;28;20490;-73
2023/05/20 13:51:13;;;;;;;6.72;3.92;;;;;;;28.67;33.95;100200.22;6246642;28;20056;-72
2023/05/20 13:54:14;;;;;;;6.55;4.20;;;;;;;27.91;35.38;100193.34;6247669;28;20501;-74
2023/05/20 13:57:15;;;;;;;7.75;3.85;;;;;;;27.27;36.62;100192.72;6246678;28;20129;-73
2023/05/20 14:00:16;;;;;;;7.68;3.03;;;;;;;27.02;36.73;100187.00;6247867;28;20057;-73
2023/05/20 14:03:17;;;;;;;9.57;5.07;;;;;;;27.54;36.37;100188.28;6246313;28;20046;-72
2023/05/20 14:06:18;;;;;;;3.28;2.63;;;;;;;28.02;37.77;100181.19;6246470;28;20057;-73
2023/05/20 14:09:19;;;;;;;8.05;5.45;;;;;;;28.34;37.56;100177.69;6245836;28;20057;-73
2023/05/20 14:12:21;;;;;;;7.50;3.65;;;;;;;28.39;35.57;100182.44;6246362;28;20500;-73
2023/05/20 14:15:22;;;;;;;7.07;2.90;;;;;;;28.69;35.23;100184.72;6246112;28;20045;-73